Time;durP1;ratioP1;P1;durP2;ratioP2;P2;SDS_P1;SDS_P2;PMS_P1;PMS_P2;Temp;Humidity;BMP_temperature;BMP_pressure;BME280_temperature;BME280_humidity;BME280_pressure;Samples;Min_cycle;Max_cycle;Signal;HPM_P1;HPM_P2
2022/03/17 00:02:17;;;;;;;55.92;33.83;;;;;;;5.34;92.12;100887.59;5029918;28;20036;-20
2022/03/17 00:04:43;;;;;;;63.67;39.80;;;;;;;5.53;91.30;100902.31;5029571;28;20029;-21
2022/03/17 00:07:09;;;;;;;54.72;35.33;;;;;;;5.46;92.28;100910.09;5029084;28;20033;-20
2022/03/17 00:09:34;;;;;;;64.10;40.45;;;;;;;5.39;91.65;100893.22;5029726;28;20021;-20
2022/03/17 00:12:00;;;;;;;63.20;38.15;;;;;;;5.62;91.40;100912.75;5029378;28;20040;-20
2022/03/17 00:14:25;;;;;;;56.33;35.85;;;;;;;5.56;91.29;100905.47;5029323;28;20065;-20
2022/03/17 00:16:51;;;;;;;64.43;38.15;;;;;;;5.57;91.08;100895.69;5029047;28;20029;-21
2022/03/17 00:19:17;;;;;;;58.60;35.17;;;;;;;5.37;92.50;100889.91;5029402;28;20071;-20
2022/03/17 00:21:42;;;;;;;61.22;36.83;;;;;;;5.50;92.08;100898.19;5029091;28;20029;-20
2022/03/17 00:24:08;;;;;;;64.22;37.45;;;;;;;5.31;93.11;100906.44;5029325;28;20029;-21
2022/03/17 00:26:34;;;;;;;65.88;39.65;;;;;;;5.42;92.53;100922.81;5029356;28;20057;-20
2022/03/17 00:29:02;;;;;;;64.88;41.60;;;;;;;5.47;92.46;100914.38;5028917;28;20064;-20
2022/03/17 00:31:28;;;;;;;70.53;46.97;;;;;;;4.97;93.66;100879.13;5011271;28;20112;-21
2022/03/17 00:33:54;;;;;;;75.90;49.70;;;;;;;5.01;94.74;100895.50;5029014;28;20069;-20
2022/03/17 00:36:20;;;;;;;67.97;42.20;;;;;;;4.86;96.36;100907.66;5028948;28;20049;-20
2022/03/17 00:38:46;;;;;;;58.35;37.67;;;;;;;4.80;97.28;100919.69;5028882;28;20108;-21
2022/03/17 00:41:12;;;;;;;56.65;35.45;;;;;;;4.75;97.87;100906.97;5028321;28;20028;-21
2022/03/17 00:43:37;;;;;;;62.85;39.35;;;;;;;5.06;96.30;100916.97;5028763;28;20428;-21
2022/03/17 00:46:03;;;;;;;62.03;39.20;;;;;;;4.97;96.19;100915.31;5028963;28;20036;-20
2022/03/17 00:48:29;;;;;;;60.65;37.80;;;;;;;4.89;96.35;100913.47;5028770;28;20034;-21
2022/03/17 00:50:55;;;;;;;62.70;38.03;;;;;;;4.77;97.19;100904.16;5028316;28;20142;-20
2022/03/17 00:53:20;;;;;;;66.30;39.58;;;;;;;4.76;97.28;100918.34;5028649;28;20489;-20
2022/03/17 00:55:46;;;;;;;61.53;37.58;;;;;;;4.65;98.06;100902.81;5028712;28;20102;-20
2022/03/17 00:58:11;;;;;;;62.33;36.90;;;;;;;4.62;99.07;100927.75;5028952;28;20026;-21
2022/03/17 01:00:37;;;;;;;63.03;37.67;;;;;;;4.65;99.44;100922.13;5028483;28;20033;-20
2022/03/17 01:03:05;;;;;;;60.38;35.72;;;;;;;4.61;99.34;100916.31;5010569;28;20036;-21
2022/03/17 01:05:31;;;;;;;66.57;37.23;;;;;;;4.88;98.19;100926.81;5028422;28;20036;-20
2022/03/17 01:07:56;;;;;;;63.50;38.70;;;;;;;4.89;97.12;100891.50;5028453;28;20029;-22
2022/03/17 01:10:23;;;;;;;69.18;40.20;;;;;;;5.08;96.68;100933.50;5028524;28;20831;-20
2022/03/17 01:12:50;;;;;;;62.25;37.78;;;;;;;5.17;96.08;100926.41;5028090;28;20045;-20
2022/03/17 01:15:18;;;;;;;61.08;38.58;;;;;;;5.21;96.07;100922.44;5028420;28;20104;-21
2022/03/17 01:17:44;;;;;;;63.38;38.08;;;;;;;5.32;95.13;100934.53;5028206;28;20069;-20
2022/03/17 01:20:11;;;;;;;62.40;39.60;;;;;;;5.34;94.50;100928.09;5027933;28;20068;-21
2022/03/17 01:22:37;;;;;;;63.08;39.10;;;;;;;5.40;93.87;100931.91;5010144;28;20033;-21
2022/03/17 01:25:05;;;;;;;63.67;38.92;;;;;;;5.72;92.18;100943.50;5028016;28;20029;-20
2022/03/17 01:27:31;;;;;;;69.45;40.88;;;;;;;5.26;93.65;100932.56;5027957;28;20026;-20
2022/03/17 01:29:56;;;;;;;59.88;36.25;;;;;;;5.04;95.73;100951.47;5028097;28;20051;-21
2022/03/17 01:32:25;;;;;;;63.13;38.58;;;;;;;5.26;95.00;100935.19;5027967;28;20087;-20
2022/03/17 01:34:51;;;;;;;61.90;38.72;;;;;;;5.15;94.92;100944.25;5009777;28;20033;-21
2022/03/17 01:37:17;;;;;;;58.60;38.50;;;;;;;5.14;95.40;100943.41;5010444;28;20060;-20
2022/03/17 01:39:42;;;;;;;57.58;35.22;;;;;;;5.17;94.84;100948.41;5028264;28;20026;-20
2022/03/17 01:42:10;;;;;;;62.92;37.42;;;;;;;5.08;95.78;100954.66;5028030;28;20033;-20
2022/03/17 01:44:36;;;;;;;57.35;36.45;;;;;;;5.08;95.77;100959.94;5027594;28;20471;-22
2022/03/17 01:49:47;;;;;;;59.42;35.45;;;;;;;5.01;96.41;100956.28;5027948;28;20122;-21
2022/03/17 01:52:13;;;;;;;58.60;38.15;;;;;;;5.06;95.99;100961.09;5027873;28;20455;-20
2022/03/17 01:54:39;;;;;;;62.80;38.38;;;;;;;5.03;96.03;100943.75;5027806;28;20037;-20
2022/03/17 01:57:07;;;;;;;56.03;36.53;;;;;;;5.37;95.07;100967.47;5027581;28;20045;-21
2022/03/17 01:59:33;;;;;;;;;;;;;;;5.27;94.72;100960.63;5028043;28;20101;-20
2022/03/17 02:01:59;;;;;;;51.33;32.67;;;;;;;5.01;95.27;100948.34;5027386;28;20507;-20
2022/03/17 02:04:24;;;;;;;62.10;34.97;;;;;;;4.98;95.68;100964.53;5027626;28;20061;-20
2022/03/17 02:06:50;;;;;;;64.55;36.92;;;;;;;5.03;95.94;100951.66;5027654;28;20129;-20
2022/03/17 02:09:16;;;;;;;66.07;38.80;;;;;;;5.03;95.57;100935.81;5009717;28;20449;-20
2022/03/17 02:14:28;;;;;;;63.45;40.90;;;;;;;5.02;95.65;100934.13;5027557;28;20060;-21
2022/03/17 02:16:53;;;;;;;63.55;39.67;;;;;;;4.96;96.92;100940.06;5027576;28;20031;-20
2022/03/17 02:19:22;;;;;;;66.63;42.05;;;;;;;5.26;95.11;100956.34;5027750;28;20143;-20
2022/03/17 02:21:49;;;;;;;58.67;39.78;;;;;;;5.35;95.04;100950.06;5027410;28;20099;-20
2022/03/17 02:27:01;;;;;;;58.97;35.33;;;;;;;5.31;93.95;100970.75;5027074;28;20112;-22
2022/03/17 02:29:27;;;;;;;57.88;35.97;;;;;;;5.76;92.80;100982.72;5027643;28;20030;-20
2022/03/17 02:31:53;;;;;;;56.58;34.92;;;;;;;5.77;91.87;101002.06;5027434;28;20039;-20
2022/03/17 02:34:19;;;;;;;58.40;36.60;;;;;;;5.80;91.58;100991.97;5027606;28;20030;-20
2022/03/17 02:36:49;;;;;;;51.80;33.83;;;;;;;5.61;91.35;100981.69;5027086;28;20038;-20
2022/03/17 02:39:21;;;;;;;52.28;34.25;;;;;;;5.45;92.22;100982.50;5027249;28;20041;-21
2022/03/17 02:41:47;;;;;;;64.25;39.00;;;;;;;5.56;92.86;101006.00;5027714;28;20053;-20
2022/03/17 02:44:13;;;;;;;56.42;35.97;;;;;;;5.57;93.57;101002.34;5027487;28;20072;-20
2022/03/17 02:46:39;;;;;;;71.18;43.13;;;;;;;5.69;91.54;101004.69;5027135;28;20041;-20
2022/03/17 02:49:04;;;;;;;55.58;35.45;;;;;;;5.58;92.36;101011.97;5027177;28;20033;-23
2022/03/17 02:51:30;;;;;;;56.50;36.03;;;;;;;5.46;92.71;101013.25;5027315;28;20083;-20
2022/03/17 02:53:56;;;;;;;54.92;35.63;;;;;;;5.53;91.80;101001.03;5026988;28;20715;-21
2022/03/17 02:56:21;;;;;;;57.13;34.80;;;;;;;5.49;92.86;101015.56;5027292;28;20497;-20
2022/03/17 02:58:47;;;;;;;51.53;33.50;;;;;;;5.52;91.97;101015.25;5027216;28;20108;-20
2022/03/17 03:01:12;;;;;;;48.92;31.92;;;;;;;5.55;91.80;101004.34;5027095;28;20122;-20
2022/03/17 03:03:38;;;;;;;76.80;40.13;;;;;;;5.49;92.01;101015.56;5027162;28;20065;-20
2022/03/17 03:06:03;;;;;;;68.30;41.50;;;;;;;5.34;93.82;100996.03;5030763;28;20208;-21
2022/03/17 03:08:29;;;;;;;52.83;34.13;;;;;;;5.40;92.27;101006.81;5030470;28;20029;-20
2022/03/17 03:10:56;;;;;;;54.33;33.15;;;;;;;5.44;92.12;101010.78;5030543;28;20087;-21
2022/03/17 03:13:22;;;;;;;53.73;33.77;;;;;;;5.30;92.23;100994.72;5030311;28;20049;-20
2022/03/17 03:15:50;;;;;;;50.65;33.05;;;;;;;5.35;92.12;101024.13;5030701;28;20037;-21
2022/03/17 03:18:16;;;;;;;60.03;36.92;;;;;;;5.14;92.82;101028.03;5030520;28;20025;-20
2022/03/17 03:20:41;;;;;;;55.40;35.78;;;;;;;5.01;94.28;101027.66;5030311;28;20044;-21
2022/03/17 03:23:07;;;;;;;56.85;36.90;;;;;;;5.24;93.17;101028.72;5029833;28;20025;-20
2022/03/17 03:25:32;;;;;;;61.97;37.90;;;;;;;5.19;93.35;101020.47;5030363;28;20033;-21
2022/03/17 03:28:06;;;;;;;65.65;37.40;;;;;;;5.41;92.87;101034.06;5030700;28;20052;-21
2022/03/17 03:30:32;;;;;;;70.05;43.25;;;;;;;5.64;90.95;101043.06;5030414;28;20029;-20
2022/03/17 03:32:57;;;;;;;60.03;36.95;;;;;;;5.50;91.53;101049.00;5030019;28;20029;-22
2022/03/17 03:38:07;;;;;;;55.15;35.15;;;;;;;5.46;91.82;101049.47;5030287;28;20040;-21
2022/03/17 03:40:32;;;;;;;60.70;38.45;;;;;;;5.44;91.81;101041.69;5012444;28;20029;-20
2022/03/17 03:42:58;;;;;;;56.22;36.83;;;;;;;5.67;90.78;101051.69;5030054;28;20497;-20
2022/03/17 03:45:23;;;;;;;60.08;37.25;;;;;;;5.31;92.56;101065.13;5029979;28;20021;-21
2022/03/17 03:47:49;;;;;;;56.08;36.30;;;;;;;5.03;94.72;101065.34;5030038;28;20406;-21
2022/03/17 03:50:15;;;;;;;64.78;38.80;;;;;;;5.23;94.44;101071.19;5029844;28;20044;-22
2022/03/17 03:52:41;;;;;;;62.53;39.97;;;;;;;5.49;92.03;101049.97;5029866;28;20042;-20
2022/03/17 03:55:07;;;;;;;104.22;55.38;;;;;;;5.74;90.65;101039.44;5029750;28;20037;-20
2022/03/17 03:57:32;;;;;;;101.85;57.05;;;;;;;5.93;89.70;101049.72;5029619;28;20033;-21
2022/03/17 03:59:58;;;;;;;77.00;45.67;;;;;;;5.91;89.35;101059.66;5029692;28;20041;-20
2022/03/17 04:02:23;;;;;;;67.03;42.30;;;;;;;5.78;90.28;101077.81;5029552;28;20409;-21
2022/03/17 04:04:49;;;;;;;66.55;40.78;;;;;;;5.88;89.62;101085.63;5029290;28;20401;-21
2022/03/17 04:07:18;;;;;;;61.35;40.67;;;;;;;5.88;88.80;101089.09;5011691;28;20021;-20
2022/03/17 04:09:43;;;;;;;59.97;40.42;;;;;;;5.81;88.65;101085.44;5029777;28;20618;-22
2022/03/17 04:12:11;;;;;;;66.53;40.63;;;;;;;6.11;88.44;101099.94;5029692;28;20022;-21
2022/03/17 04:14:37;;;;;;;64.05;39.75;;;;;;;6.33;86.35;101095.78;5029275;28;20053;-20
2022/03/17 04:17:04;;;;;;;59.58;38.15;;;;;;;6.55;84.84;101099.59;5028096;28;20037;-21
2022/03/17 04:19:30;;;;;;;63.45;40.72;;;;;;;6.67;83.52;101099.25;5029105;28;20044;-20
2022/03/17 04:21:56;;;;;;;62.90;37.05;;;;;;;6.03;86.85;101113.97;5029285;28;20138;-22
2022/03/17 04:24:22;;;;;;;57.05;37.10;;;;;;;5.71;88.57;101092.72;5029340;28;20120;-20
2022/03/17 04:26:48;;;;;;;58.65;37.55;;;;;;;5.98;89.31;101121.56;5029204;28;20121;-21
2022/03/17 04:29:15;;;;;;;59.38;36.42;;;;;;;6.29;86.53;101113.00;5029389;28;20025;-20
2022/03/17 04:31:42;;;;;;;56.42;37.08;;;;;;;6.53;85.64;101132.56;5029192;28;20021;-22
2022/03/17 04:34:09;;;;;;;59.63;36.83;;;;;;;6.63;84.85;101146.47;5028830;28;20033;-20
2022/03/17 04:36:35;;;;;;;58.75;37.45;;;;;;;6.67;84.55;101141.66;5011281;28;20560;-20
2022/03/17 04:39:02;;;;;;;76.50;42.40;;;;;;;5.99;86.76;101128.53;5011083;28;20033;-20
2022/03/17 04:41:28;;;;;;;92.57;53.00;;;;;;;5.72;88.79;101142.00;5028953;28;20032;-21
2022/03/17 04:43:54;;;;;;;79.18;46.35;;;;;;;6.06;88.12;101159.66;5028894;28;20029;-20
2022/03/17 04:46:20;;;;;;;71.75;45.65;;;;;;;6.50;85.28;101140.81;5028676;28;20030;-20
2022/03/17 04:48:46;;;;;;;72.82;44.33;;;;;;;6.69;83.93;101153.75;5028731;28;20063;-20
2022/03/17 04:51:11;;;;;;;71.13;42.42;;;;;;;6.80;82.64;101147.28;5028886;28;20025;-20
2022/03/17 04:53:37;;;;;;;81.30;45.65;;;;;;;6.15;85.25;101153.38;5028946;28;20112;-20
2022/03/17 04:56:08;;;;;;;68.10;42.03;;;;;;;6.07;87.23;101182.50;5028729;28;20033;-21
2022/03/17 04:58:35;;;;;;;68.45;42.13;;;;;;;6.27;87.08;101162.66;5028686;28;20052;-20
2022/03/17 05:01:02;;;;;;;64.78;42.63;;;;;;;6.06;86.34;101164.97;5028257;28;20029;-20
2022/03/17 05:03:27;;;;;;;67.05;44.35;;;;;;;6.16;85.86;101149.75;5028211;28;20025;-20
2022/03/17 05:05:54;;;;;;;71.78;44.88;;;;;;;6.44;85.07;101166.19;5028569;28;20615;-21
2022/03/17 05:08:20;;;;;;;77.75;48.10;;;;;;;6.23;86.14;101158.69;5010681;28;20055;-21
2022/03/17 05:10:47;;;;;;;89.55;55.15;;;;;;;6.16;86.87;101168.28;5028850;28;20510;-20
2022/03/17 05:13:13;;;;;;;89.18;53.05;;;;;;;6.22;86.87;101175.59;5028276;28;20060;-21
2022/03/17 05:15:40;;;;;;;78.30;48.58;;;;;;;5.98;87.19;101157.81;5028201;28;20040;-20
2022/03/17 05:18:07;;;;;;;104.45;61.03;;;;;;;6.09;87.85;101172.56;5028275;28;20037;-20
2022/03/17 05:20:37;;;;;;;85.35;52.47;;;;;;;6.31;86.59;101185.19;5028637;28;20029;-20
2022/03/17 05:23:09;;;;;;;114.53;70.00;;;;;;;5.98;87.49;101174.53;5028103;28;20037;-20
2022/03/17 05:25:35;;;;;;;119.97;71.53;;;;;;;5.94;88.96;101178.44;5010418;28;20091;-20
2022/03/17 05:28:01;;;;;;;91.35;57.67;;;;;;;6.03;88.57;101193.41;5027957;28;20037;-21
2022/03/17 05:30:28;;;;;;;82.13;50.95;;;;;;;5.97;88.88;101186.13;5028061;28;20036;-21
2022/03/17 05:32:54;;;;;;;89.03;57.17;;;;;;;5.95;87.71;101195.22;5028018;28;20033;-20
2022/03/17 05:35:20;;;;;;;92.18;56.97;;;;;;;6.42;86.32;101198.13;5028400;28;20041;-21
2022/03/17 05:37:45;;;;;;;89.15;54.35;;;;;;;6.64;84.76;101194.03;5028055;28;20032;-20
2022/03/17 05:40:15;;;;;;;97.40;59.13;;;;;;;6.80;84.24;101198.50;5027951;28;20091;-20
2022/03/17 05:42:46;;;;;;;94.60;57.15;;;;;;;6.58;85.10;101212.41;5027624;28;20028;-20
2022/03/17 05:45:14;;;;;;;88.85;55.05;;;;;;;5.95;87.83;101204.00;5027781;28;20036;-20
2022/03/17 05:47:41;;;;;;;;;;;;;;;5.83;90.39;101223.78;5028809;28;20104;-20
2022/03/17 05:50:10;;;;;;;82.18;53.40;;;;;;;5.81;90.56;101225.75;5028299;28;19913;-20
2022/03/17 05:52:36;;;;;;;81.75;51.83;;;;;;;6.06;90.29;101228.50;5028299;28;20030;-20
2022/03/17 05:55:02;;;;;;;93.43;57.20;;;;;;;5.97;89.56;101236.44;5027507;28;20040;-21
2022/03/17 05:57:27;;;;;;;89.18;53.15;;;;;;;5.89;89.81;101244.31;5028079;28;20033;-20
2022/03/17 05:59:52;;;;;;;80.35;51.22;;;;;;;5.76;90.50;101231.53;5028062;28;20022;-20
2022/03/17 06:02:18;;;;;;;79.97;52.15;;;;;;;5.79;90.91;101239.13;5027795;28;20018;-20
2022/03/17 06:04:44;;;;;;;87.40;55.58;;;;;;;5.94;90.12;101249.13;5027717;28;20040;-21
2022/03/17 06:07:10;;;;;;;112.72;66.45;;;;;;;5.92;90.44;101253.75;5027495;28;20048;-20
2022/03/17 06:09:38;;;;;;;123.70;68.10;;;;;;;5.74;91.33;101240.59;5027847;28;20500;-21
2022/03/17 06:12:05;;;;;;;112.63;60.15;;;;;;;5.49;92.29;101227.22;5027416;28;20038;-20
2022/03/17 06:14:32;;;;;;;91.75;52.75;;;;;;;5.61;91.51;101236.56;5027803;28;20049;-20
2022/03/17 06:16:58;;;;;;;99.93;55.53;;;;;;;5.61;92.51;101255.09;5027302;28;20033;-20
2022/03/17 06:19:23;;;;;;;108.65;57.35;;;;;;;5.73;92.73;101238.94;5027485;28;20078;-21
2022/03/17 06:21:49;;;;;;;100.78;58.10;;;;;;;5.75;91.58;101247.56;5009617;28;20037;-20
2022/03/17 06:24:14;;;;;;;105.88;59.20;;;;;;;5.93;90.42;101264.19;5027219;28;20724;-20
2022/03/17 06:26:40;;;;;;;99.80;58.40;;;;;;;6.19;89.50;101282.69;5027559;28;20796;-20
2022/03/17 06:29:05;;;;;;;97.35;60.50;;;;;;;6.43;89.28;101283.75;5027139;28;20390;-20
2022/03/17 06:31:31;;;;;;;98.70;57.63;;;;;;;6.61;87.65;101288.94;5027404;28;20060;-21
2022/03/17 06:33:57;;;;;;;96.63;56.53;;;;;;;6.68;86.42;101287.31;5027470;28;20073;-21
2022/03/17 06:36:23;;;;;;;93.78;57.55;;;;;;;6.91;85.69;101287.50;5027628;28;20026;-21
2022/03/17 06:38:48;;;;;;;108.88;64.10;;;;;;;6.68;86.56;101319.13;5027310;28;20025;-21
2022/03/17 06:41:14;;;;;;;202.25;96.03;;;;;;;6.42;87.78;101314.72;5031303;28;20036;-21
2022/03/17 06:43:39;;;;;;;110.00;66.25;;;;;;;6.32;87.78;101314.03;5031252;28;20029;-21
2022/03/17 06:46:05;;;;;;;104.38;61.95;;;;;;;6.17;87.93;101289.13;5031166;28;20477;-20
2022/03/17 06:48:30;;;;;;;93.35;56.60;;;;;;;6.37;88.24;101326.78;5030967;28;20038;-20
2022/03/17 06:50:57;;;;;;;95.60;55.95;;;;;;;6.46;88.10;101319.69;5030845;28;20421;-21
2022/03/17 06:53:22;;;;;;;99.90;60.67;;;;;;;6.44;87.33;101328.66;5030999;28;20030;-20
2022/03/17 06:55:48;;;;;;;87.95;54.03;;;;;;;6.33;87.93;101331.56;5030749;28;20405;-21
2022/03/17 06:58:13;;;;;;;74.72;45.10;;;;;;;6.33;88.04;101328.09;5031408;28;20490;-20
2022/03/17 07:00:39;;;;;;;67.82;41.45;;;;;;;6.18;88.79;101328.69;5012950;28;20460;-21
2022/03/17 07:03:04;;;;;;;69.63;44.22;;;;;;;6.41;88.48;101344.03;5031061;28;20033;-20
2022/03/17 07:05:29;;;;;;;68.13;43.67;;;;;;;6.46;87.73;101343.53;5030861;28;20033;-20
2022/03/17 07:07:55;;;;;;;61.28;41.05;;;;;;;6.51;87.45;101347.38;5030704;28;20478;-20
2022/03/17 07:10:20;;;;;;;70.05;42.28;;;;;;;6.77;87.36;101349.94;5030611;28;20917;-20
2022/03/17 07:12:47;;;;;;;63.00;40.60;;;;;;;6.70;87.37;101337.47;5030521;28;20045;-20
2022/03/17 07:15:13;;;;;;;64.38;41.22;;;;;;;6.68;86.22;101350.94;5030878;28;20037;-21
2022/03/17 07:17:40;;;;;;;63.72;40.72;;;;;;;6.38;87.25;101339.88;5030513;28;20410;-20
2022/03/17 07:20:11;;;;;;;62.22;39.40;;;;;;;6.29;88.19;101364.66;5030817;28;20080;-21
2022/03/17 07:22:36;;;;;;;61.63;38.90;;;;;;;6.07;87.82;101338.75;5030061;28;20059;-20
2022/03/17 07:25:04;;;;;;;75.03;45.20;;;;;;;6.17;87.20;101350.03;5030363;28;20025;-21
2022/03/17 07:27:31;;;;;;;68.65;42.90;;;;;;;6.26;87.26;101366.81;5030327;28;20167;-20
2022/03/17 07:29:56;;;;;;;67.75;41.63;;;;;;;5.97;87.73;101355.59;5030401;28;20033;-20
2022/03/17 07:32:25;;;;;;;63.90;39.83;;;;;;;6.02;86.49;101355.94;5030282;28;20037;-21
2022/03/17 07:34:50;;;;;;;;;;;;;;;6.23;86.01;101362.66;5030461;28;20502;-22
2022/03/17 07:37:16;;;;;;;60.10;36.42;;;;;;;6.43;85.32;101353.47;5030070;28;19934;-20
2022/03/17 07:39:42;;;;;;;59.65;38.40;;;;;;;6.54;83.92;101359.47;5030157;28;20040;-20
2022/03/17 07:42:08;;;;;;;69.55;40.90;;;;;;;6.32;83.93;101369.66;5030241;28;20166;-22
2022/03/17 07:44:35;;;;;;;73.07;43.17;;;;;;;6.08;84.95;101370.38;5030074;28;20029;-20
2022/03/17 07:47:01;;;;;;;71.10;43.65;;;;;;;6.04;83.73;101369.84;5029678;28;20025;-20
2022/03/17 07:49:26;;;;;;;69.55;43.95;;;;;;;6.04;84.25;101372.50;5029454;28;20026;-22
2022/03/17 07:51:53;;;;;;;70.50;43.22;;;;;;;6.26;85.07;101359.72;5029144;28;20036;-21
2022/03/17 07:54:18;;;;;;;53.15;33.63;;;;;;;6.30;83.01;101374.28;5029756;28;20100;-20
2022/03/17 07:56:44;;;;;;;53.22;30.70;;;;;;;6.38;81.48;101376.16;5011463;28;20166;-21
2022/03/17 07:59:10;;;;;;;55.55;33.70;;;;;;;6.31;81.45;101370.63;5029558;28;20034;-20
2022/03/17 08:01:35;;;;;;;47.47;29.25;;;;;;;6.51;80.23;101395.06;5029764;28;20033;-20
2022/03/17 08:04:01;;;;;;;45.85;28.67;;;;;;;6.64;75.32;101397.31;5029648;28;20109;-20
2022/03/17 08:06:26;;;;;;;48.13;29.25;;;;;;;6.30;77.44;101379.59;5011557;28;20120;-21
2022/03/17 08:08:52;;;;;;;45.72;28.35;;;;;;;6.40;75.45;101384.78;5029418;28;20125;-20
2022/03/17 08:11:18;;;;;;;53.30;31.17;;;;;;;6.87;76.86;101399.38;5029560;28;20733;-20
2022/03/17 08:13:45;;;;;;;50.03;29.63;;;;;;;7.14;74.75;101383.16;5028879;28;20053;-20
2022/03/17 08:16:11;;;;;;;41.38;25.10;;;;;;;6.89;73.50;101394.72;5011965;28;20116;-20
2022/03/17 08:18:36;;;;;;;44.13;26.58;;;;;;;7.14;71.14;101393.78;5029381;28;20532;-21
2022/03/17 08:21:03;;;;;;;42.72;25.88;;;;;;;7.64;68.42;101389.31;5029002;28;20028;-20
2022/03/17 08:23:29;;;;;;;48.05;27.73;;;;;;;7.68;70.52;101400.44;5029349;28;20555;-20
2022/03/17 08:25:54;;;;;;;44.88;26.83;;;;;;;7.77;71.17;101407.41;5029522;28;20030;-20
2022/03/17 08:28:20;;;;;;;44.65;27.38;;;;;;;7.96;67.35;101415.00;5029305;28;20083;-20
2022/03/17 08:30:47;;;;;;;44.47;25.33;;;;;;;7.88;65.18;101420.31;5029006;28;20029;-20
2022/03/17 08:33:17;;;;;;;42.88;25.75;;;;;;;7.69;67.99;101394.94;4994726;28;20056;-21
2022/03/17 08:35:43;;;;;;;45.75;26.90;;;;;;;7.95;67.97;101412.53;5028708;28;20090;-20
2022/03/17 08:38:10;;;;;;;46.40;28.73;;;;;;;8.01;69.80;101418.00;5029276;28;20033;-20
2022/03/17 08:40:38;;;;;;;45.58;26.70;;;;;;;8.31;66.53;101423.56;5029014;28;20025;-20
2022/03/17 08:43:12;;;;;;;45.97;27.88;;;;;;;8.18;68.95;101408.16;5028682;28;20025;-25
2022/03/17 08:51:09;;;;;;;51.75;27.55;;;;;;;7.69;70.69;101423.34;5028297;28;20079;-20
2022/03/17 08:53:35;;;;;;;45.22;27.75;;;;;;;7.43;70.29;101422.47;5028412;28;20127;-20
2022/03/17 08:56:01;;;;;;;49.83;29.48;;;;;;;7.77;70.79;101410.88;5028790;28;20407;-20
2022/03/17 08:58:28;;;;;;;44.13;26.90;;;;;;;7.61;69.55;101422.34;5028316;28;20033;-21
2022/03/17 09:00:54;;;;;;;45.58;25.23;;;;;;;7.88;70.78;101407.03;5028670;28;20610;-20
2022/03/17 09:03:19;;;;;;;44.60;26.20;;;;;;;8.02;68.09;101409.00;5028203;28;20033;-20
2022/03/17 09:05:45;;;;;;;45.97;26.83;;;;;;;8.27;68.99;101416.94;5028630;28;20049;-20
2022/03/17 09:08:11;;;;;;;44.15;25.23;;;;;;;8.15;65.86;101402.34;5028755;28;20030;-20
2022/03/17 09:10:41;;;;;;;47.13;25.15;;;;;;;8.41;68.48;101423.41;5028370;28;20029;-20
2022/03/17 09:13:10;;;;;;;41.40;24.38;;;;;;;8.39;66.72;101431.50;5028134;28;20168;-20
2022/03/17 09:15:38;;;;;;;41.05;24.70;;;;;;;8.77;66.17;101434.41;5028600;28;20033;-20
2022/03/17 09:18:06;;;;;;;38.58;24.52;;;;;;;8.70;63.61;101417.47;5028098;28;20111;-20
2022/03/17 09:20:32;;;;;;;42.10;23.80;;;;;;;8.58;65.74;101418.84;5028224;28;20489;-20
2022/03/17 09:22:58;;;;;;;38.00;22.45;;;;;;;8.12;63.49;101418.63;5028053;28;20052;-20
2022/03/17 09:25:28;;;;;;;39.75;22.27;;;;;;;7.60;67.82;101427.78;5028006;28;20411;-28
2022/03/17 09:27:54;;;;;;;42.33;23.83;;;;;;;7.98;67.22;101428.94;5028365;28;20040;-21
2022/03/17 09:30:21;;;;;;;40.85;23.83;;;;;;;8.14;66.10;101428.09;5028089;28;20029;-20
2022/03/17 09:32:47;;;;;;;37.95;22.73;;;;;;;8.24;64.75;101427.91;5028479;28;20025;-20
2022/03/17 09:35:13;;;;;;;40.53;24.20;;;;;;;7.84;66.80;101426.97;5028197;28;20051;-20
2022/03/17 09:37:40;;;;;;;40.00;22.70;;;;;;;8.23;65.28;101451.00;5027920;28;20786;-20
2022/03/17 09:40:07;;;;;;;43.88;24.15;;;;;;;7.74;69.46;101452.88;5027862;28;20057;-20
2022/03/17 09:42:34;;;;;;;42.60;23.92;;;;;;;7.78;67.88;101439.06;5028087;28;20118;-20
2022/03/17 09:45:00;;;;;;;38.97;22.60;;;;;;;7.60;68.80;101452.53;5027840;28;20021;-20
2022/03/17 09:47:28;;;;;;;41.70;24.35;;;;;;;7.55;70.22;101430.97;5027952;28;20038;-21
2022/03/17 09:49:56;;;;;;;40.53;23.48;;;;;;;7.62;68.99;101442.59;5010221;28;20034;-20
2022/03/17 09:52:22;;;;;;;39.63;24.85;;;;;;;7.33;68.50;101439.56;5027851;28;20040;-20
2022/03/17 09:54:50;;;;;;;42.85;27.23;;;;;;;7.39;68.07;101439.72;5027390;28;20040;-20
2022/03/17 09:57:16;;;;;;;44.75;26.35;;;;;;;7.67;70.43;101457.19;5027970;28;20036;-19
2022/03/17 09:59:48;;;;;;;38.40;23.15;;;;;;;7.46;68.27;101429.31;5027854;28;20025;-20
2022/03/17 10:02:16;;;;;;;39.97;23.33;;;;;;;7.86;69.95;101456.84;5027832;28;20026;-20
2022/03/17 10:04:44;;;;;;;40.08;24.20;;;;;;;7.37;71.36;101448.84;5027614;28;20025;-20
2022/03/17 10:07:10;;;;;;;37.00;22.52;;;;;;;7.61;68.58;101456.03;5027492;28;20029;-19
2022/03/17 10:09:35;;;;;;;38.28;22.35;;;;;;;7.51;69.00;101434.94;5009568;28;20682;-21
2022/03/17 10:12:06;;;;;;;36.75;23.83;;;;;;;7.63;68.28;101436.28;5027797;28;20060;-21
2022/03/17 10:14:35;;;;;;;39.10;23.20;;;;;;;7.72;64.80;101455.69;5028984;28;20061;-20
2022/03/17 10:17:03;;;;;;;;;;;;;;;8.00;66.57;101453.50;5032006;28;20025;-20
2022/03/17 10:19:31;;;;;;;39.10;22.45;;;;;;;7.93;66.66;101441.91;5031607;28;19956;-20
2022/03/17 10:22:06;;;;;;;35.13;21.02;;;;;;;8.09;67.20;101458.81;5031362;28;20037;-21
2022/03/17 10:24:36;;;;;;;39.03;22.02;;;;;;;8.56;65.90;101456.25;5031566;28;20029;-20
2022/03/17 10:27:03;;;;;;;43.60;27.92;;;;;;;8.80;62.20;101444.69;5031452;28;20579;-21
2022/03/17 10:29:29;;;;;;;40.85;22.63;;;;;;;8.97;62.52;101460.56;5031388;28;20026;-20
2022/03/17 10:32:06;;;;;;;33.55;21.50;;;;;;;8.48;63.66;101442.16;5031461;28;20028;-21
2022/03/17 10:34:47;;;;;;;33.72;20.48;;;;;;;8.53;64.88;101453.13;5031454;28;20037;-21
2022/03/17 10:37:15;;;;;;;31.08;20.80;;;;;;;8.47;62.71;101459.94;5031599;28;20033;-20
2022/03/17 10:39:47;;;;;;;32.15;20.48;;;;;;;8.67;60.62;101443.59;5031150;28;20099;-20
2022/03/17 10:42:31;;;;;;;35.25;20.40;;;;;;;8.91;62.09;101459.44;5031240;28;20069;-20
2022/03/17 10:45:05;;;;;;;32.30;21.13;;;;;;;8.82;61.34;101444.50;5030781;28;20033;-21
2022/03/17 10:47:39;;;;;;;33.58;19.95;;;;;;;8.52;62.03;101464.72;5031151;28;20490;-20
2022/03/17 10:50:17;;;;;;;33.10;20.38;;;;;;;8.16;65.14;101470.44;5031139;28;20032;-20
2022/03/17 10:52:47;;;;;;;32.88;20.50;;;;;;;8.16;65.66;101467.78;5031030;28;20033;-20
2022/03/17 10:55:13;;;;;;;38.75;23.73;;;;;;;8.54;64.32;101444.13;5030654;28;20125;-20
2022/03/17 10:57:39;;;;;;;39.25;25.55;;;;;;;8.47;64.82;101470.56;5031031;28;20065;-21
2022/03/17 11:00:10;;;;;;;39.50;22.92;;;;;;;8.05;65.46;101475.09;5030788;28;20477;-20
2022/03/17 11:02:40;;;;;;;34.92;21.25;;;;;;;7.81;68.43;101469.81;5030771;28;20494;-20
2022/03/17 11:05:10;;;;;;;37.38;21.95;;;;;;;7.50;68.65;101459.84;5012524;28;20132;-21
2022/03/17 11:07:38;;;;;;;36.58;22.50;;;;;;;7.56;69.64;101477.75;5029958;28;20433;-21
2022/03/17 11:10:07;;;;;;;37.08;20.85;;;;;;;7.56;68.70;101471.59;5030748;28;20191;-20
2022/03/17 11:12:34;;;;;;;40.70;24.05;;;;;;;7.22;71.08;101457.47;5030124;28;20133;-21
2022/03/17 11:15:01;;;;;;;40.67;23.10;;;;;;;7.23;72.05;101471.53;5030313;28;20033;-22
2022/03/17 11:17:35;;;;;;;38.47;21.60;;;;;;;6.83;72.14;101481.03;5030512;28;20029;-20
2022/03/17 11:20:06;;;;;;;35.10;20.08;;;;;;;6.61;75.76;101487.72;5030451;28;20053;-20
2022/03/17 11:22:33;;;;;;;41.10;23.98;;;;;;;5.88;80.87;101486.22;5030445;28;20030;-20
2022/03/17 11:25:18;;;;;;;38.03;22.20;;;;;;;5.77;83.38;101499.69;5029644;28;20022;-20
2022/03/17 11:27:47;;;;;;;123.70;60.88;;;;;;;5.81;84.03;101495.75;5030525;28;20133;-20
2022/03/17 11:30:14;;;;;;;78.57;39.45;;;;;;;5.59;86.00;101487.28;5030232;28;20517;-20
2022/03/17 11:32:56;;;;;;;69.93;38.22;;;;;;;5.32;84.70;101504.06;5030066;28;20494;-20